createdAt,value
2023-04-24T00:00:11.093Z,13.32
2023-04-24T00:01:11.087Z,13.38
2023-04-24T00:02:11.233Z,13.36
2023-04-24T00:03:11.331Z,13.51
2023-04-24T00:04:11.303Z,13.45
2023-04-24T00:05:11.073Z,13.45
2023-04-24T00:06:11.057Z,13.45
2023-04-24T00:07:11.071Z,13.49
2023-04-24T00:08:11.052Z,13.46
2023-04-24T00:09:11.042Z,13.46
2023-04-24T00:10:11.052Z,13.46
2023-04-24T00:11:11.046Z,13.45
2023-04-24T00:12:11.018Z,13.45
2023-04-24T00:13:11.038Z,13.46
2023-04-24T00:14:11.010Z,13.54
2023-04-24T00:15:11.005Z,13.51
2023-04-24T00:16:11.077Z,13.47
2023-04-24T00:17:10.996Z,13.49
2023-04-24T00:18:10.995Z,13.42
2023-04-24T00:19:10.986Z,13.36
2023-04-24T00:20:10.978Z,13.23
2023-04-24T00:21:10.977Z,13.29
2023-04-24T00:22:10.959Z,13.27
2023-04-24T00:23:10.969Z,13.23
2023-04-24T00:24:10.956Z,13.19
2023-04-24T00:25:10.967Z,13.38
2023-04-24T00:26:10.944Z,13.24
2023-04-24T00:27:10.935Z,13.35
2023-04-24T00:28:10.936Z,13.35
2023-04-24T00:29:10.922Z,13.32
2023-04-24T00:30:10.924Z,13.46
2023-04-24T00:31:10.922Z,13.47
2023-04-24T00:32:10.961Z,13.45
2023-04-24T00:33:10.930Z,13.47
2023-04-24T00:34:10.908Z,13.36
2023-04-24T00:35:10.900Z,13.46
2023-04-24T00:36:10.889Z,13.38
2023-04-24T00:37:10.880Z,13.51
2023-04-24T00:38:10.881Z,13.43
2023-04-24T00:39:10.880Z,13.47
2023-04-24T00:40:10.879Z,13.51
2023-04-24T00:41:10.859Z,13.54
2023-04-24T00:42:10.848Z,13.43
2023-04-24T00:43:10.843Z,13.53
2023-04-24T00:44:10.831Z,13.53
2023-04-24T00:45:10.835Z,13.45
2023-04-24T00:46:10.829Z,13.46
2023-04-24T00:47:10.817Z,13.40
2023-04-24T00:48:10.879Z,13.45
2023-04-24T00:49:10.813Z,13.49
2023-04-24T00:50:10.814Z,13.45
2023-04-24T00:51:10.802Z,13.55
2023-04-24T00:52:10.793Z,13.49
2023-04-24T00:53:10.814Z,13.51
2023-04-24T00:54:10.785Z,13.51
2023-04-24T00:55:10.777Z,13.53
2023-04-24T00:56:10.767Z,13.54
2023-04-24T00:57:10.800Z,13.54
2023-04-24T00:58:10.814Z,13.61
2023-04-24T00:59:10.752Z,13.58
2023-04-24T01:00:10.769Z,13.55
2023-04-24T01:01:10.780Z,13.57
2023-04-24T01:02:10.772Z,13.61
2023-04-24T01:03:10.829Z,13.61
2023-04-24T01:04:10.782Z,13.57
2023-04-24T01:05:10.720Z,13.51
2023-04-24T01:06:10.708Z,13.54
2023-04-24T01:07:10.710Z,13.51
2023-04-24T01:08:10.698Z,13.60
2023-04-24T01:09:10.692Z,13.63
2023-04-24T01:10:10.688Z,13.57
2023-04-24T01:11:10.704Z,13.53
2023-04-24T01:12:10.681Z,13.46
2023-04-24T01:13:10.671Z,13.49
2023-04-24T01:14:10.671Z,13.51
2023-04-24T01:15:10.662Z,13.46
2023-04-24T01:16:10.726Z,13.53
2023-04-24T01:17:10.645Z,13.55
2023-04-24T01:18:10.645Z,13.47
2023-04-24T01:19:10.636Z,13.47
2023-04-24T01:20:10.633Z,13.51
2023-04-24T01:21:10.624Z,13.47
2023-04-24T01:22:10.621Z,13.51
2023-04-24T01:23:10.619Z,13.46
2023-04-24T01:24:10.601Z,13.53
2023-04-24T01:25:10.611Z,13.42
2023-04-24T01:26:10.599Z,13.46
2023-04-24T01:27:10.590Z,13.45
2023-04-24T01:28:10.585Z,13.46
2023-04-24T01:29:10.578Z,13.47
2023-04-24T01:30:10.585Z,13.47
2023-04-24T01:31:10.599Z,13.42
2023-04-24T01:32:10.572Z,13.45
2023-04-24T01:33:10.552Z,13.45
2023-04-24T01:34:10.560Z,13.38
2023-04-24T01:35:10.574Z,13.32
2023-04-24T01:36:10.540Z,13.32
2023-04-24T01:37:10.538Z,13.38
2023-04-24T01:38:10.526Z,13.30
2023-04-24T01:39:10.522Z,13.24
2023-04-24T01:40:10.512Z,13.13
2023-04-24T01:41:10.510Z,13.11
2023-04-24T01:42:10.495Z,12.93
2023-04-24T01:43:10.500Z,12.91
2023-04-24T01:44:10.491Z,12.90
2023-04-24T01:45:10.484Z,12.99
2023-04-24T01:46:10.521Z,12.99
2023-04-24T01:47:10.479Z,12.91
2023-04-24T01:48:10.467Z,12.91
2023-04-24T01:49:10.464Z,12.87
2023-04-24T01:50:10.461Z,12.93
2023-04-24T01:51:10.457Z,12.98
2023-04-24T01:52:10.448Z,12.98
2023-04-24T01:53:10.443Z,12.91
2023-04-24T01:54:10.446Z,12.87
2023-04-24T01:55:10.429Z,12.88
2023-04-24T01:56:10.419Z,12.81
2023-04-24T01:57:10.448Z,12.88
2023-04-24T01:58:10.410Z,12.80
2023-04-24T01:59:10.406Z,12.80
2023-04-24T02:00:10.402Z,12.79
2023-04-24T02:01:10.458Z,12.76
2023-04-24T02:02:10.467Z,12.77
2023-04-24T02:03:10.454Z,12.72
2023-04-24T02:04:10.478Z,12.77
2023-04-24T02:05:10.366Z,12.77
2023-04-24T02:06:10.357Z,12.73
2023-04-24T02:07:10.361Z,12.77
2023-04-24T02:08:10.353Z,12.77
2023-04-24T02:09:10.342Z,12.80
2023-04-24T02:10:10.341Z,12.76
2023-04-24T02:11:10.336Z,12.63
2023-04-24T02:12:10.339Z,12.63
2023-04-24T02:13:10.316Z,12.59
2023-04-24T02:14:10.310Z,12.69
2023-04-24T02:15:10.305Z,12.65
2023-04-24T02:16:11.385Z,12.66
2023-04-24T02:17:10.297Z,12.62
2023-04-24T02:18:10.283Z,12.63
2023-04-24T02:19:10.275Z,12.51
2023-04-24T02:20:10.284Z,12.46
2023-04-24T02:21:10.269Z,12.44
2023-04-24T02:22:10.276Z,12.43
2023-04-24T02:23:10.259Z,12.44
2023-04-24T02:24:10.255Z,12.46
2023-04-24T02:25:10.238Z,12.50
2023-04-24T02:26:10.233Z,12.46
2023-04-24T02:27:10.237Z,12.40
2023-04-24T02:28:10.223Z,12.46
2023-04-24T02:29:10.227Z,12.44
2023-04-24T02:30:10.209Z,12.46
2023-04-24T02:31:10.204Z,12.46
2023-04-24T02:32:10.240Z,12.38
2023-04-24T02:33:10.193Z,12.43
2023-04-24T02:34:10.180Z,12.25
2023-04-24T02:35:10.235Z,12.25
2023-04-24T02:36:10.165Z,12.25
2023-04-24T02:37:10.179Z,12.18
2023-04-24T02:38:10.176Z,12.08
2023-04-24T02:39:10.154Z,12.07
2023-04-24T02:40:10.140Z,12.03
2023-04-24T02:41:10.144Z,12.08
2023-04-24T02:42:10.132Z,12.05
2023-04-24T02:43:10.125Z,12.07
2023-04-24T02:44:10.116Z,12.00
2023-04-24T02:45:10.116Z,12.08
2023-04-24T02:46:10.217Z,12.05
2023-04-24T02:47:10.099Z,12.03
2023-04-24T02:48:10.096Z,11.99
2023-04-24T02:49:10.090Z,11.99
2023-04-24T02:50:10.078Z,11.87
2023-04-24T02:51:10.077Z,12.00
2023-04-24T02:52:10.065Z,11.97
2023-04-24T02:53:10.066Z,11.96
2023-04-24T02:54:10.056Z,11.91
2023-04-24T02:55:10.056Z,11.76
2023-04-24T02:56:10.039Z,11.70
2023-04-24T02:57:10.036Z,11.62
2023-04-24T02:58:10.024Z,11.66
2023-04-24T02:59:10.042Z,11.56
2023-04-24T03:00:10.010Z,11.64
2023-04-24T03:01:10.030Z,11.61
2023-04-24T03:02:10.013Z,11.69
2023-04-24T03:03:10.088Z,11.59
2023-04-24T03:04:10.116Z,11.62
2023-04-24T03:05:09.994Z,11.55
2023-04-24T03:06:09.969Z,11.51
2023-04-24T03:07:09.966Z,11.48
2023-04-24T03:08:09.988Z,11.58
2023-04-24T03:09:09.951Z,11.48
2023-04-24T03:10:09.945Z,11.51
2023-04-24T03:11:09.944Z,11.45
2023-04-24T03:12:09.934Z,11.43
2023-04-24T03:13:09.923Z,11.46
2023-04-24T03:14:09.924Z,11.51
2023-04-24T03:15:09.923Z,11.51
2023-04-24T03:16:09.985Z,11.51
2023-04-24T03:17:09.901Z,11.49
2023-04-24T03:18:09.917Z,11.52
2023-04-24T03:19:09.910Z,11.48
2023-04-24T03:20:09.877Z,11.37
2023-04-24T03:21:09.868Z,11.34
2023-04-24T03:22:09.861Z,11.43
2023-04-24T03:23:09.858Z,11.30
2023-04-24T03:24:09.859Z,11.30
2023-04-24T03:25:09.852Z,11.28
2023-04-24T03:26:09.844Z,11.30
2023-04-24T03:27:09.838Z,11.37
2023-04-24T03:28:09.824Z,11.37
2023-04-24T03:29:09.820Z,11.41
2023-04-24T03:30:09.818Z,11.25
2023-04-24T03:31:09.868Z,11.31
2023-04-24T03:32:09.834Z,11.27
2023-04-24T03:33:09.796Z,11.30
2023-04-24T03:34:09.788Z,11.31
2023-04-24T03:35:09.780Z,11.28
2023-04-24T03:36:09.772Z,11.22
2023-04-24T03:37:09.770Z,11.28
2023-04-24T03:38:09.774Z,11.28
2023-04-24T03:39:09.760Z,11.31
2023-04-24T03:40:09.761Z,11.27
2023-04-24T03:41:09.735Z,11.23
2023-04-24T03:42:09.740Z,11.20
2023-04-24T03:43:09.727Z,11.23
2023-04-24T03:44:09.720Z,11.28
2023-04-24T03:45:09.709Z,11.31
2023-04-24T03:46:09.722Z,11.27
2023-04-24T03:47:09.696Z,11.20
2023-04-24T03:48:09.699Z,11.18
2023-04-24T03:49:09.709Z,11.13
2023-04-24T03:50:11.762Z,11.13
2023-04-24T03:51:09.670Z,11.01
2023-04-24T03:52:09.673Z,10.93
2023-04-24T03:53:09.656Z,10.97
2023-04-24T03:54:09.649Z,10.91
2023-04-24T03:55:09.642Z,10.90
2023-04-24T03:56:10.555Z,10.90
2023-04-24T03:57:09.631Z,10.98
2023-04-24T03:58:09.624Z,10.94
2023-04-24T03:59:09.632Z,10.98
2023-04-24T04:00:09.613Z,11.03
2023-04-24T04:01:09.603Z,11.04
2023-04-24T04:02:09.666Z,11.12
2023-04-24T04:03:09.749Z,11.00
2023-04-24T04:04:09.770Z,11.09
2023-04-24T04:05:09.668Z,10.94
2023-04-24T04:06:09.563Z,11.08
2023-04-24T04:07:09.571Z,11.03
2023-04-24T04:08:09.555Z,10.97
2023-04-24T04:09:09.532Z,10.97
2023-04-24T04:10:09.534Z,10.98
2023-04-24T04:11:09.539Z,10.97
2023-04-24T04:12:09.525Z,10.97
2023-04-24T04:13:09.509Z,11.00
2023-04-24T04:14:09.512Z,10.90
2023-04-24T04:15:09.500Z,10.87
2023-04-24T04:16:09.513Z,10.85
2023-04-24T04:17:09.490Z,10.87
2023-04-24T04:18:09.558Z,10.86
2023-04-24T04:19:09.487Z,10.82
2023-04-24T04:20:09.460Z,10.90
2023-04-24T04:21:09.457Z,10.87
2023-04-24T04:22:09.453Z,10.72
2023-04-24T04:23:09.443Z,10.70
2023-04-24T04:24:09.427Z,10.82
2023-04-24T04:25:09.415Z,10.82
2023-04-24T04:26:09.421Z,10.76
2023-04-24T04:27:09.429Z,10.68
2023-04-24T04:28:09.406Z,10.72
2023-04-24T04:29:09.439Z,10.61
2023-04-24T04:30:09.392Z,10.68
2023-04-24T04:31:09.384Z,10.65
2023-04-24T04:32:09.409Z,10.73
2023-04-24T04:33:09.465Z,10.79
2023-04-24T04:34:09.355Z,10.75
2023-04-24T04:35:09.361Z,10.68
2023-04-24T04:36:09.349Z,10.80
2023-04-24T04:37:09.343Z,10.78
2023-04-24T04:38:09.348Z,10.72
2023-04-24T04:39:09.338Z,10.83
2023-04-24T04:40:09.326Z,10.76
2023-04-24T04:41:09.321Z,10.79
2023-04-24T04:42:09.303Z,10.75
2023-04-24T04:43:09.296Z,10.75
2023-04-24T04:44:09.295Z,10.78
2023-04-24T04:45:09.284Z,10.86
2023-04-24T04:46:09.332Z,10.93
2023-04-24T04:47:09.266Z,10.91
2023-04-24T04:48:09.270Z,11.03
2023-04-24T04:49:09.259Z,10.98
2023-04-24T04:50:09.247Z,10.98
2023-04-24T04:51:09.265Z,10.97
2023-04-24T04:52:09.234Z,11.04
2023-04-24T04:53:09.232Z,11.03
2023-04-24T04:54:09.227Z,11.04
2023-04-24T04:55:09.206Z,11.11
2023-04-24T04:56:09.213Z,11.15
2023-04-24T04:57:09.203Z,11.12
2023-04-24T04:58:09.200Z,11.11
2023-04-24T04:59:09.187Z,11.05
2023-04-24T05:00:09.173Z,10.97
2023-04-24T05:01:09.237Z,10.94
2023-04-24T05:02:09.250Z,11.00
2023-04-24T05:03:19.107Z,11.03
2023-04-24T05:04:09.308Z,10.97
2023-04-24T05:05:09.230Z,11.00
2023-04-24T05:06:09.167Z,10.94
2023-04-24T05:07:09.136Z,11.00
2023-04-24T05:08:16.494Z,11.09
2023-04-24T05:09:09.126Z,11.04
2023-04-24T05:10:09.107Z,11.12
2023-04-24T05:11:09.107Z,11.16
2023-04-24T05:12:09.100Z,11.04
2023-04-24T05:13:09.092Z,11.16
2023-04-24T05:14:09.089Z,11.09
2023-04-24T05:15:09.072Z,11.19
2023-04-24T05:16:09.066Z,11.16
2023-04-24T05:17:09.153Z,11.13
2023-04-24T05:18:09.106Z,11.13
2023-04-24T05:19:09.051Z,11.13
2023-04-24T05:20:09.036Z,11.18
2023-04-24T05:21:09.033Z,11.19
2023-04-24T05:22:09.026Z,11.15
2023-04-24T05:23:09.027Z,11.15
2023-04-24T05:24:09.010Z,11.15
2023-04-24T05:25:09.017Z,11.15
2023-04-24T05:26:09.002Z,11.11
2023-04-24T05:27:09.014Z,11.12
2023-04-24T05:28:08.980Z,11.03
2023-04-24T05:29:08.978Z,11.08
2023-04-24T05:30:08.971Z,11.00
2023-04-24T05:31:08.997Z,11.13
2023-04-24T05:32:08.951Z,11.08
2023-04-24T05:33:09.076Z,11.13
2023-04-24T05:34:08.940Z,11.04
2023-04-24T05:35:08.939Z,11.08
2023-04-24T05:36:08.924Z,11.09
2023-04-24T05:37:08.917Z,11.09
2023-04-24T05:38:08.918Z,11.04
2023-04-24T05:39:08.905Z,11.08
2023-04-24T05:40:08.893Z,11.23
2023-04-24T05:41:08.886Z,11.25
2023-04-24T05:42:08.885Z,11.19
2023-04-24T05:43:08.876Z,11.27
2023-04-24T05:44:08.862Z,11.19
2023-04-24T05:45:08.856Z,11.28
2023-04-24T05:46:08.896Z,11.25
2023-04-24T05:47:08.849Z,11.31
2023-04-24T05:48:08.861Z,11.25
2023-04-24T05:49:08.829Z,11.27
2023-04-24T05:50:08.828Z,11.23
2023-04-24T05:51:08.813Z,11.22
2023-04-24T05:52:08.807Z,11.30
2023-04-24T05:53:08.827Z,11.30
2023-04-24T05:54:08.794Z,11.31
2023-04-24T05:55:08.796Z,11.37
2023-04-24T05:56:08.783Z,11.25
2023-04-24T05:57:08.787Z,11.27
2023-04-24T05:58:08.764Z,11.25
2023-04-24T05:59:08.759Z,11.30
2023-04-24T06:00:08.760Z,11.22
2023-04-24T06:01:08.762Z,11.31
2023-04-24T06:02:08.849Z,11.36
2023-04-24T06:03:08.851Z,11.38
2023-04-24T06:04:08.918Z,11.22
2023-04-24T06:05:08.750Z,11.25
2023-04-24T06:06:08.707Z,11.28
2023-04-24T06:07:08.705Z,11.31
2023-04-24T06:08:08.693Z,11.27
2023-04-24T06:09:08.685Z,11.30
2023-04-24T06:10:08.694Z,11.31
2023-04-24T06:11:08.673Z,11.27
2023-04-24T06:12:08.658Z,11.31
2023-04-24T06:13:08.664Z,11.31
2023-04-24T06:14:08.651Z,11.38
2023-04-24T06:15:08.643Z,11.38
2023-04-24T06:16:08.655Z,11.34
2023-04-24T06:17:08.637Z,11.28
2023-04-24T06:18:08.620Z,11.27
2023-04-24T06:19:08.609Z,11.34
2023-04-24T06:20:08.606Z,11.30
2023-04-24T06:21:08.599Z,11.30
2023-04-24T06:22:10.453Z,11.28
2023-04-24T06:23:08.595Z,11.20
2023-04-24T06:24:08.612Z,11.30
2023-04-24T06:25:08.574Z,11.25
2023-04-24T06:26:08.566Z,11.31
2023-04-24T06:27:08.561Z,11.30
2023-04-24T06:28:08.548Z,11.45
2023-04-24T06:29:08.538Z,11.40
2023-04-24T06:30:08.539Z,11.36
2023-04-24T06:31:08.535Z,11.43
2023-04-24T06:32:08.544Z,11.40
2023-04-24T06:33:19.584Z,11.37
2023-04-24T06:34:08.542Z,11.38
2023-04-24T06:35:08.491Z,11.43
2023-04-24T06:36:08.487Z,11.43
2023-04-24T06:37:08.479Z,11.48
2023-04-24T06:38:08.472Z,11.48
2023-04-24T06:39:08.478Z,11.64
2023-04-24T06:40:08.886Z,11.62
2023-04-24T06:41:08.458Z,11.66
2023-04-24T06:42:08.452Z,11.55
2023-04-24T06:43:08.442Z,11.56
2023-04-24T06:44:08.431Z,11.58
2023-04-24T06:45:08.430Z,11.67
2023-04-24T06:46:08.454Z,11.67
2023-04-24T06:47:08.424Z,11.59
2023-04-24T06:48:08.498Z,11.55
2023-04-24T06:49:08.406Z,11.59
2023-04-24T06:50:08.391Z,11.62
2023-04-24T06:51:08.388Z,11.61
2023-04-24T06:52:08.380Z,11.61
2023-04-24T06:53:08.367Z,11.49
2023-04-24T06:54:08.374Z,11.49
2023-04-24T06:55:08.353Z,11.51
2023-04-24T06:56:08.351Z,11.43
2023-04-24T06:57:08.367Z,11.41
2023-04-24T06:58:08.349Z,11.49
2023-04-24T06:59:08.365Z,11.46
2023-04-24T07:00:08.333Z,11.54
2023-04-24T07:01:08.482Z,11.46
2023-04-24T07:02:08.385Z,11.48
2023-04-24T07:03:08.501Z,11.49
2023-04-24T07:04:08.395Z,11.48
2023-04-24T07:05:08.300Z,11.61
2023-04-24T07:06:08.298Z,11.59
2023-04-24T07:07:08.302Z,11.58
2023-04-24T07:08:08.269Z,11.58
2023-04-24T07:09:08.338Z,11.59
2023-04-24T07:10:08.277Z,11.58
2023-04-24T07:11:08.258Z,11.55
2023-04-24T07:12:08.242Z,11.43
2023-04-24T07:13:08.236Z,11.46
2023-04-24T07:14:08.230Z,11.28
2023-04-24T07:15:08.227Z,11.23
2023-04-24T07:16:08.322Z,11.30
2023-04-24T07:17:08.196Z,11.27
2023-04-24T07:18:08.226Z,11.31
2023-04-24T07:19:08.200Z,11.23
2023-04-24T07:20:08.185Z,11.31
2023-04-24T07:21:08.213Z,11.30
2023-04-24T07:22:08.179Z,11.36
2023-04-24T07:23:08.170Z,11.33
2023-04-24T07:24:08.163Z,11.25
2023-04-24T07:25:08.169Z,11.34
2023-04-24T07:26:08.150Z,11.34
2023-04-24T07:27:08.147Z,11.40
2023-04-24T07:28:08.136Z,11.43
2023-04-24T07:29:08.125Z,11.36
2023-04-24T07:30:08.118Z,11.33
2023-04-24T07:31:08.120Z,11.37
2023-04-24T07:32:08.134Z,11.45
2023-04-24T07:33:08.163Z,11.28
2023-04-24T07:34:08.089Z,11.31
2023-04-24T07:35:08.089Z,11.27
2023-04-24T07:36:08.083Z,11.28
2023-04-24T07:37:08.148Z,11.27
2023-04-24T07:38:08.070Z,11.33
2023-04-24T07:39:08.050Z,11.30
2023-04-24T07:40:08.055Z,11.37
2023-04-24T07:41:08.041Z,11.31
2023-04-24T07:42:08.046Z,11.28
2023-04-24T07:43:08.026Z,11.28
2023-04-24T07:44:08.029Z,11.36
2023-04-24T07:45:08.012Z,11.27
2023-04-24T07:47:08.028Z,11.30
2023-04-24T07:48:08.032Z,11.30
2023-04-24T07:49:13.532Z,11.30
2023-04-24T07:50:08.010Z,11.27
2023-04-24T07:51:07.978Z,11.20
2023-04-24T07:52:07.970Z,11.33
2023-04-24T07:53:07.958Z,11.28
2023-04-24T07:54:07.977Z,11.25
2023-04-24T07:55:08.002Z,11.25
2023-04-24T07:56:07.946Z,11.37
2023-04-24T07:57:07.935Z,11.31
2023-04-24T07:58:07.939Z,11.28
2023-04-24T07:59:07.919Z,11.28
2023-04-24T08:00:07.911Z,11.40
2023-04-24T08:01:07.907Z,11.45
2023-04-24T08:02:07.972Z,11.38
2023-04-24T08:03:08.147Z,11.27
2023-04-24T08:04:08.087Z,11.30
2023-04-24T08:05:08.101Z,11.30
2023-04-24T08:06:07.974Z,11.33
2023-04-24T08:07:07.869Z,11.30
2023-04-24T08:08:07.859Z,11.27
2023-04-24T08:09:07.850Z,11.27
2023-04-24T08:10:07.844Z,11.30
2023-04-24T08:11:07.841Z,11.30
2023-04-24T08:12:07.839Z,11.31
2023-04-24T08:13:07.821Z,11.28
2023-04-24T08:14:07.821Z,11.40
2023-04-24T08:15:07.810Z,11.30
2023-04-24T08:16:07.841Z,11.20
2023-04-24T08:17:07.801Z,11.09
2023-04-24T08:18:07.809Z,11.03
2023-04-24T08:19:28.784Z,11.04
2023-04-24T08:20:07.776Z,10.91
2023-04-24T08:21:07.767Z,11.01
2023-04-24T08:22:07.761Z,10.91
2023-04-24T08:23:07.760Z,10.87
2023-04-24T08:24:07.746Z,10.91
2023-04-24T08:25:07.742Z,10.94
2023-04-24T08:26:07.735Z,10.91
2023-04-24T08:27:07.730Z,10.86
2023-04-24T08:28:07.718Z,10.91
2023-04-24T08:29:07.724Z,10.86
2023-04-24T08:30:07.709Z,10.90
2023-04-24T08:31:07.797Z,10.98
2023-04-24T08:32:07.998Z,10.94
2023-04-24T08:33:07.713Z,10.87
2023-04-24T08:34:07.677Z,10.87
2023-04-24T08:35:07.675Z,10.86
2023-04-24T08:36:07.668Z,10.78
2023-04-24T08:37:07.704Z,10.73
2023-04-24T08:38:07.656Z,10.67
2023-04-24T08:39:07.644Z,10.73
2023-04-24T08:40:07.658Z,10.64
2023-04-24T08:41:07.629Z,10.72
2023-04-24T08:42:07.625Z,10.70
2023-04-24T08:43:07.614Z,10.62
2023-04-24T08:44:09.006Z,10.52
2023-04-24T08:45:07.604Z,10.58
2023-04-24T08:46:11.634Z,10.35
2023-04-24T08:47:07.586Z,9.94
2023-04-24T08:48:11.437Z,9.93
2023-04-24T08:49:07.590Z,9.99
2023-04-24T08:50:07.568Z,9.98
2023-04-24T08:51:07.578Z,9.96
2023-04-24T08:52:07.553Z,9.90
2023-04-24T08:53:07.546Z,9.70
2023-04-24T08:54:07.538Z,9.65
2023-04-24T08:55:07.521Z,9.72
2023-04-24T08:56:07.526Z,9.57
2023-04-24T08:57:07.522Z,9.65
2023-04-24T08:58:07.511Z,9.65
2023-04-24T08:59:07.495Z,9.69
2023-04-24T09:00:08.259Z,9.60
2023-04-24T09:01:07.496Z,9.65
2023-04-24T09:02:07.560Z,9.60
2023-04-24T09:03:07.591Z,9.66
2023-04-24T09:04:07.660Z,9.75
2023-04-24T09:05:07.455Z,9.70
2023-04-24T09:06:07.450Z,9.77
2023-04-24T09:07:07.445Z,9.84
2023-04-24T09:08:07.435Z,9.81
2023-04-24T09:09:07.440Z,9.72
2023-04-24T09:10:07.439Z,9.84
2023-04-24T09:11:07.402Z,9.91
2023-04-24T09:12:07.407Z,9.84
2023-04-24T09:13:07.408Z,9.90
2023-04-24T09:14:07.394Z,10.02
2023-04-24T09:15:07.380Z,10.02
2023-04-24T09:16:07.408Z,10.05
2023-04-24T09:17:07.506Z,10.08
2023-04-24T09:18:07.378Z,10.08
2023-04-24T09:19:07.346Z,10.03
2023-04-24T09:20:07.343Z,10.02
2023-04-24T09:21:07.339Z,9.99
2023-04-24T09:22:07.331Z,10.06
2023-04-24T09:23:07.313Z,10.08
2023-04-24T09:24:07.324Z,10.12
2023-04-24T09:25:07.302Z,10.18
2023-04-24T09:26:07.297Z,10.14
2023-04-24T09:27:08.142Z,10.20
2023-04-24T09:28:07.301Z,10.23
2023-04-24T09:29:07.271Z,10.18
2023-04-24T09:30:07.266Z,10.10
2023-04-24T09:31:07.251Z,10.16
2023-04-24T09:32:07.368Z,10.16
2023-04-24T09:33:07.257Z,10.17
2023-04-24T09:34:08.085Z,10.17
2023-04-24T09:35:07.232Z,10.36
2023-04-24T09:36:07.226Z,10.26
2023-04-24T09:37:07.222Z,10.24
2023-04-24T09:38:07.213Z,10.31
2023-04-24T09:39:07.197Z,10.38
2023-04-24T09:40:07.202Z,10.41
2023-04-24T09:41:07.193Z,10.27
2023-04-24T09:42:07.182Z,10.31
2023-04-24T09:43:07.169Z,10.34
2023-04-24T09:44:07.167Z,10.39
2023-04-24T09:45:14.613Z,10.34
2023-04-24T09:46:07.171Z,10.31
2023-04-24T09:47:07.139Z,10.26
2023-04-24T09:48:07.169Z,10.27
2023-04-24T09:49:07.124Z,10.24
2023-04-24T09:50:07.124Z,10.35
2023-04-24T09:51:07.170Z,10.42
2023-04-24T09:52:07.113Z,10.31
2023-04-24T09:53:07.096Z,10.27
2023-04-24T09:54:07.088Z,10.27
2023-04-24T09:55:07.078Z,10.09
2023-04-24T09:56:07.092Z,10.12
2023-04-24T09:57:07.071Z,10.01
2023-04-24T09:58:07.057Z,10.01
2023-04-24T09:59:07.066Z,10.01
2023-04-24T10:00:07.047Z,10.12
2023-04-24T10:01:07.112Z,10.05
2023-04-24T10:02:07.033Z,10.09
2023-04-24T10:03:07.127Z,10.05
2023-04-24T10:04:07.053Z,10.12
2023-04-24T10:05:07.073Z,10.20
2023-04-24T10:06:07.014Z,10.16
2023-04-24T10:07:06.996Z,10.17
2023-04-24T10:08:06.986Z,10.26
2023-04-24T10:09:06.967Z,10.26
2023-04-24T10:10:06.966Z,10.23
2023-04-24T10:11:06.958Z,10.26
2023-04-24T10:12:06.952Z,10.23
2023-04-24T10:13:06.946Z,10.34
2023-04-24T10:14:06.938Z,10.30
2023-04-24T10:15:06.930Z,10.35
2023-04-24T10:16:06.954Z,10.27
2023-04-24T10:17:06.913Z,10.30
2023-04-24T10:18:06.957Z,10.36
2023-04-24T10:19:06.906Z,10.39
2023-04-24T10:20:06.893Z,10.42
2023-04-24T10:21:06.891Z,10.38
2023-04-24T10:22:08.855Z,10.42
2023-04-24T10:23:06.869Z,10.54
2023-04-24T10:24:06.867Z,10.48
2023-04-24T10:25:06.862Z,10.52
2023-04-24T10:26:06.858Z,10.46
2023-04-24T10:27:06.854Z,10.60
2023-04-24T10:28:08.394Z,10.58
2023-04-24T10:29:06.829Z,10.54
2023-04-24T10:30:06.826Z,10.54
2023-04-24T10:31:06.852Z,10.60
2023-04-24T10:32:06.805Z,10.52
2023-04-24T10:33:06.860Z,10.43
2023-04-24T10:34:06.817Z,10.49
2023-04-24T10:35:06.783Z,10.49
2023-04-24T10:36:06.769Z,10.60
2023-04-24T10:37:06.779Z,10.46
2023-04-24T10:38:06.771Z,10.61
2023-04-24T10:39:06.758Z,10.65
2023-04-24T10:40:06.760Z,10.72
2023-04-24T10:41:06.742Z,10.58
2023-04-24T10:42:06.737Z,10.65
2023-04-24T10:43:06.732Z,10.79
2023-04-24T10:44:06.722Z,10.72
2023-04-24T10:45:06.737Z,10.85
2023-04-24T10:46:06.970Z,10.75
2023-04-24T10:47:06.718Z,10.75
2023-04-24T10:48:06.726Z,10.79
2023-04-24T10:49:06.689Z,10.73
2023-04-24T10:50:06.677Z,10.76
2023-04-24T10:51:06.664Z,10.75
2023-04-24T10:52:06.887Z,10.60
2023-04-24T10:53:06.662Z,10.62
2023-04-24T10:54:06.661Z,10.61
2023-04-24T10:55:06.651Z,10.61
2023-04-24T10:56:06.643Z,10.55
2023-04-24T10:57:06.625Z,10.68
2023-04-24T10:58:06.635Z,10.72
2023-04-24T10:59:06.622Z,10.72
2023-04-24T11:00:07.209Z,10.64
2023-04-24T11:01:06.655Z,10.72
2023-04-24T11:02:06.589Z,10.68
2023-04-24T11:03:06.715Z,10.78
2023-04-24T11:04:06.628Z,10.70
2023-04-24T11:05:06.566Z,10.79
2023-04-24T11:06:06.571Z,10.72
2023-04-24T11:07:06.563Z,10.72
2023-04-24T11:08:07.384Z,10.76
2023-04-24T11:09:06.541Z,10.67
2023-04-24T11:10:06.531Z,10.76
2023-04-24T11:11:06.543Z,10.79
2023-04-24T11:12:06.517Z,10.72
2023-04-24T11:13:06.512Z,10.82
2023-04-24T11:14:06.505Z,10.90
2023-04-24T11:15:06.510Z,10.86
2023-04-24T11:16:06.563Z,10.95
2023-04-24T11:17:06.687Z,10.94
2023-04-24T11:18:06.515Z,11.05
2023-04-24T11:19:06.467Z,11.11
2023-04-24T11:20:18.975Z,11.19
2023-04-24T11:21:06.474Z,11.48
2023-04-24T11:22:06.444Z,11.52
2023-04-24T11:23:06.438Z,11.73
2023-04-24T11:24:06.427Z,11.80
2023-04-24T11:25:06.426Z,11.87
2023-04-24T11:26:06.420Z,11.84
2023-04-24T11:27:06.418Z,11.91
2023-04-24T11:28:06.424Z,11.82
2023-04-24T11:29:06.413Z,11.80
2023-04-24T11:30:06.391Z,11.79
2023-04-24T11:31:06.388Z,11.64
2023-04-24T11:32:06.443Z,11.48
2023-04-24T11:33:06.484Z,11.49
2023-04-24T11:34:06.368Z,11.49
2023-04-24T11:35:06.361Z,11.37
2023-04-24T11:36:06.359Z,11.27
2023-04-24T11:37:06.340Z,11.36
2023-04-24T11:39:06.331Z,11.37
2023-04-24T11:40:06.351Z,11.31
2023-04-24T11:41:06.332Z,11.40
2023-04-24T11:42:06.313Z,11.49
2023-04-24T11:43:07.669Z,11.66
2023-04-24T11:44:06.302Z,11.62
2023-04-24T11:45:06.298Z,11.74
2023-04-24T11:46:07.406Z,11.82
2023-04-24T11:47:06.282Z,11.80
2023-04-24T11:48:06.315Z,11.99
2023-04-24T11:49:06.274Z,12.00
2023-04-24T11:50:06.269Z,11.96
2023-04-24T11:51:06.264Z,12.07
2023-04-24T11:52:06.267Z,12.00
2023-04-24T11:53:06.261Z,11.80
2023-04-24T11:54:06.241Z,12.04
2023-04-24T11:55:06.230Z,12.04
2023-04-24T11:56:06.226Z,12.04
2023-04-24T11:57:06.220Z,12.11
2023-04-24T11:58:06.220Z,12.07
2023-04-24T11:59:06.206Z,11.99
2023-04-24T12:00:07.048Z,11.99
2023-04-24T12:01:06.196Z,11.99
2023-04-24T12:02:06.272Z,11.77
2023-04-24T12:03:06.293Z,11.76
2023-04-24T12:04:06.445Z,11.80
2023-04-24T12:05:06.356Z,11.85
2023-04-24T12:06:06.227Z,11.73
2023-04-24T12:07:06.248Z,11.74
2023-04-24T12:08:06.295Z,11.77
2023-04-24T12:09:17.483Z,11.91
2023-04-24T12:10:06.153Z,11.80
2023-04-24T12:11:06.129Z,11.80
2023-04-24T12:12:06.126Z,11.89
2023-04-24T12:13:06.117Z,11.79
2023-04-24T12:14:06.129Z,12.00
2023-04-24T12:15:06.102Z,12.11
2023-04-24T12:16:06.170Z,12.11
2023-04-24T12:17:06.093Z,11.95
2023-04-24T12:18:06.125Z,12.03
2023-04-24T12:19:06.084Z,12.04
2023-04-24T12:20:06.079Z,12.03
2023-04-24T12:21:06.078Z,12.07
2023-04-24T12:22:06.063Z,12.13
2023-04-24T12:23:06.066Z,12.11
2023-04-24T12:24:06.060Z,12.07
2023-04-24T12:25:06.047Z,12.15
2023-04-24T12:26:06.056Z,12.26
2023-04-24T12:27:06.036Z,12.05
2023-04-24T12:28:06.283Z,12.07
2023-04-24T12:29:06.019Z,12.17
2023-04-24T12:30:06.009Z,12.05
2023-04-24T12:31:06.023Z,12.14
2023-04-24T12:32:06.015Z,12.14
2023-04-24T12:33:06.021Z,12.13
2023-04-24T12:34:05.993Z,12.29
2023-04-24T12:35:05.994Z,12.25
2023-04-24T12:36:05.976Z,12.44
2023-04-24T12:37:05.968Z,12.48
2023-04-24T12:38:05.973Z,12.61
2023-04-24T12:39:05.952Z,12.65
2023-04-24T12:40:05.949Z,12.76
2023-04-24T12:41:05.959Z,12.77
2023-04-24T12:42:05.980Z,12.87
2023-04-24T12:43:05.939Z,12.83
2023-04-24T12:44:05.928Z,12.73
2023-04-24T12:45:05.955Z,12.83
2023-04-24T12:46:05.917Z,12.81
2023-04-24T12:47:05.947Z,12.76
2023-04-24T12:48:05.920Z,12.79
2023-04-24T12:49:05.903Z,12.83
2023-04-24T12:50:05.885Z,12.68
2023-04-24T12:51:05.887Z,12.59
2023-04-24T12:52:05.880Z,12.58
2023-04-24T12:53:05.873Z,12.47
2023-04-24T12:54:05.872Z,12.59
2023-04-24T12:55:05.864Z,12.58